CheckWX is a tool to help pilots better visualize weather data.  It is not intended as a substitute for an official pre-flight weather briefing.

17:05:01 UTC

KVAD TAF
Moody AFB Airport
Valdosta, Georgia, USA
TAF KVAD 181600Z 1816/1922 20006KT 9999 BKN030 QNH2996INS TEMPO 1818/1824 24015G25KT 8000 -TSRA BKN030CB BECMG 1901/1902 22008KT 9999 SCT040 QNH2997INS BECMG 1907/1908 22006KT 8000 BR BKN005 QNH2996INS BECMG 1913/1914 24010G15KT 9999 NSW SCT020 QNH2991INS TX32/1818Z TN23/1906Z

Jun-18@
16:00 UTC

Jun-18 @ 16:00 UTC

Jun-19@
01:00 UTC

Jun-19 @ 01:00 UTC

TAF KVAD 181600Z 1816/1922 20006KT 9999 BKN030 QNH2996INS
Wind
  • 200° at 6 KTS
Cloud Levels
  • Broken at 3,000' AGL

Jun-18@
18:00 UTC

Jun-18 @ 18:00 UTC

Jun-19@
00:00 UTC

Jun-19 @ 00:00 UTC

TEMPO 1818/1824 24015G25KT 8000 -TSRA BKN030CB

Temporary

Temporary Changes expected for less than half the time period

Wind
  • 240° at 15 KTS
  • {Gusting to 25 KTS
Conditions
Light Thunderstorm, Light Rain
Cloud Levels
  • Broken at 3,000' AGL

Jun-19@
01:00 UTC

Jun-19 @ 01:00 UTC

Jun-19@
07:00 UTC

Jun-19 @ 07:00 UTC

BECMG 1901/1902 22008KT 9999 SCT040 QNH2997INS

Becoming

Becoming Conditions expected by Wed, Jun 19, 2019 @ 02:00 UTC

Wind
  • 220° at 8 KTS
Cloud Levels
  • Scattered at 4,000' AGL

Jun-19@
07:00 UTC

Jun-19 @ 07:00 UTC

Jun-19@
13:00 UTC

Jun-19 @ 13:00 UTC

BECMG 1907/1908 22006KT 8000 BR BKN005 QNH2996INS

Becoming

Becoming Conditions expected by Wed, Jun 19, 2019 @ 08:00 UTC

Wind
  • 220° at 6 KTS
Conditions
Mist
Cloud Levels
  • Broken at 500' AGL

Jun-19@
13:00 UTC

Jun-19 @ 13:00 UTC

Jun-19@
22:00 UTC

Jun-19 @ 22:00 UTC

BECMG 1913/1914 24010G15KT 9999 NSW SCT020 QNH2991INS TX32/1818Z TN23/1906Z

Becoming

Becoming Conditions expected by Wed, Jun 19, 2019 @ 14:00 UTC

Wind
  • 240° at 10 KTS
  • {Gusting to 15 KTS
Conditions
No significant weather
Cloud Levels
  • Scattered at 2,000' AGL